Terminal Aerodrome Forecast
Issued by NWS

Home | Current Version | Previous Version | Text Only | Print | Product List | Glossary On
Versions: 1 2 3 4 5 6 7 8 9 10 11 12 13 14 15 16 17 18 19 20 21 22 23 24 25 26 27 28 29 30
000
FTUS41 KCTP 161949 AAA
TAFAOO
TAF AMD
KAOO 161949Z 1620/1718 VRB03KT P6SM SCT025 OVC070
     FM162100 13004KT P6SM BKN025 OVC050
     FM170000 14004KT 4SM BR OVC015
     FM170600 17004KT 2SM -RA BR OVC008=

USA.gov is the U.S. government's official web portal to all federal, state and local government web resources and services.